Terminal Aerodrome Forecast
Issued by NWS

Home | Current Version | Previous Version | Graphics & Text | Print | Product List | Glossary On
Versions: 1 2 3 4 5 6 7 8 9 10 11 12 13 14 15 16 17
081
FTUS43 KOAX 231744
TAFCDR
TAF
KCDR 231744Z 2318/2418 04015G25KT 1/4SM +SN FZFG OVC008
     FM240300 02010KT 1/4SM +SN OVC003
     FM241600 02008KT 1/2SM SN OVC015=

USA.gov is the U.S. government's official web portal to all federal, state and local government web resources and services.